sensor_id;sensor_type;location;lat;lon;timestamp;P1;durP1;ratioP1;P2;durP2;ratioP2
74375;SDS011;62812;55.188;61.302;2023-09-30T00:01:23;14.65;;;7.53;;
74375;SDS011;62812;55.188;61.302;2023-09-30T00:03:50;16.10;;;7.78;;
74375;SDS011;62812;55.188;61.302;2023-09-30T00:06:17;15.43;;;7.97;;
74375;SDS011;62812;55.188;61.302;2023-09-30T00:08:44;17.45;;;8.43;;
74375;SDS011;62812;55.188;61.302;2023-09-30T00:11:11;17.55;;;8.02;;
74375;SDS011;62812;55.188;61.302;2023-09-30T00:13:40;14.43;;;7.90;;
74375;SDS011;62812;55.188;61.302;2023-09-30T00:16:07;19.30;;;8.68;;
74375;SDS011;62812;55.188;61.302;2023-09-30T00:18:34;19.30;;;9.00;;
74375;SDS011;62812;55.188;61.302;2023-09-30T00:21:03;18.48;;;8.57;;
74375;SDS011;62812;55.188;61.302;2023-09-30T00:23:29;18.73;;;9.32;;
74375;SDS011;62812;55.188;61.302;2023-09-30T00:25:56;17.00;;;9.05;;
74375;SDS011;62812;55.188;61.302;2023-09-30T00:28:23;18.92;;;8.90;;
74375;SDS011;62812;55.188;61.302;2023-09-30T00:30:50;17.63;;;8.57;;
74375;SDS011;62812;55.188;61.302;2023-09-30T00:33:18;19.00;;;9.90;;
74375;SDS011;62812;55.188;61.302;2023-09-30T00:35:45;15.52;;;8.32;;
74375;SDS011;62812;55.188;61.302;2023-09-30T00:38:13;20.95;;;9.50;;
74375;SDS011;62812;55.188;61.302;2023-09-30T00:40:46;20.88;;;9.93;;
74375;SDS011;62812;55.188;61.302;2023-09-30T00:43:17;18.15;;;8.30;;
74375;SDS011;62812;55.188;61.302;2023-09-30T00:45:44;19.70;;;9.68;;
74375;SDS011;62812;55.188;61.302;2023-09-30T00:48:11;17.85;;;8.98;;
74375;SDS011;62812;55.188;61.302;2023-09-30T00:50:38;18.73;;;9.18;;
74375;SDS011;62812;55.188;61.302;2023-09-30T00:53:06;21.73;;;9.60;;
74375;SDS011;62812;55.188;61.302;2023-09-30T00:55:34;23.35;;;9.70;;
74375;SDS011;62812;55.188;61.302;2023-09-30T00:58:03;18.52;;;8.80;;
74375;SDS011;62812;55.188;61.302;2023-09-30T01:00:29;19.70;;;9.23;;
74375;SDS011;62812;55.188;61.302;2023-09-30T01:02:57;15.88;;;8.38;;
74375;SDS011;62812;55.188;61.302;2023-09-30T01:05:25;18.13;;;8.68;;
74375;SDS011;62812;55.188;61.302;2023-09-30T01:07:52;18.60;;;9.77;;
74375;SDS011;62812;55.188;61.302;2023-09-30T01:10:19;18.90;;;9.25;;
74375;SDS011;62812;55.188;61.302;2023-09-30T01:12:48;16.67;;;9.18;;
74375;SDS011;62812;55.188;61.302;2023-09-30T01:15:14;19.67;;;9.50;;
74375;SDS011;62812;55.188;61.302;2023-09-30T01:17:41;19.85;;;9.18;;
74375;SDS011;62812;55.188;61.302;2023-09-30T01:20:09;21.67;;;9.50;;
74375;SDS011;62812;55.188;61.302;2023-09-30T01:22:39;16.50;;;9.00;;
74375;SDS011;62812;55.188;61.302;2023-09-30T01:25:06;20.25;;;9.57;;
74375;SDS011;62812;55.188;61.302;2023-09-30T01:27:35;19.45;;;9.15;;
74375;SDS011;62812;55.188;61.302;2023-09-30T01:30:02;19.30;;;9.52;;
74375;SDS011;62812;55.188;61.302;2023-09-30T01:32:30;20.02;;;9.65;;
74375;SDS011;62812;55.188;61.302;2023-09-30T01:34:57;22.23;;;9.93;;
74375;SDS011;62812;55.188;61.302;2023-09-30T01:37:26;19.92;;;9.20;;
74375;SDS011;62812;55.188;61.302;2023-09-30T01:39:55;22.08;;;10.15;;
74375;SDS011;62812;55.188;61.302;2023-09-30T01:42:21;20.38;;;10.10;;
74375;SDS011;62812;55.188;61.302;2023-09-30T01:44:48;21.58;;;10.23;;
74375;SDS011;62812;55.188;61.302;2023-09-30T01:47:14;22.58;;;10.38;;
74375;SDS011;62812;55.188;61.302;2023-09-30T01:49:40;19.35;;;10.02;;
74375;SDS011;62812;55.188;61.302;2023-09-30T01:52:08;20.27;;;10.48;;
74375;SDS011;62812;55.188;61.302;2023-09-30T01:54:34;22.05;;;10.20;;
74375;SDS011;62812;55.188;61.302;2023-09-30T01:57:02;21.45;;;9.50;;
74375;SDS011;62812;55.188;61.302;2023-09-30T01:59:29;20.75;;;9.95;;
74375;SDS011;62812;55.188;61.302;2023-09-30T02:01:56;20.92;;;9.95;;
74375;SDS011;62812;55.188;61.302;2023-09-30T02:04:23;22.10;;;9.80;;
74375;SDS011;62812;55.188;61.302;2023-09-30T02:06:49;19.50;;;9.00;;
74375;SDS011;62812;55.188;61.302;2023-09-30T02:09:16;20.17;;;9.75;;
74375;SDS011;62812;55.188;61.302;2023-09-30T02:11:43;16.25;;;8.52;;
74375;SDS011;62812;55.188;61.302;2023-09-30T02:14:11;18.73;;;9.38;;
74375;SDS011;62812;55.188;61.302;2023-09-30T02:16:37;20.30;;;8.90;;
74375;SDS011;62812;55.188;61.302;2023-09-30T02:19:05;20.92;;;9.43;;
74375;SDS011;62812;55.188;61.302;2023-09-30T02:21:36;21.25;;;11.10;;
74375;SDS011;62812;55.188;61.302;2023-09-30T02:24:04;22.73;;;9.93;;
74375;SDS011;62812;55.188;61.302;2023-09-30T02:26:34;20.75;;;9.95;;
74375;SDS011;62812;55.188;61.302;2023-09-30T02:29:01;21.70;;;9.95;;
74375;SDS011;62812;55.188;61.302;2023-09-30T02:31:29;17.92;;;9.93;;
74375;SDS011;62812;55.188;61.302;2023-09-30T02:33:56;18.23;;;9.27;;
74375;SDS011;62812;55.188;61.302;2023-09-30T02:36:22;20.35;;;10.05;;
74375;SDS011;62812;55.188;61.302;2023-09-30T02:38:49;21.73;;;10.00;;
74375;SDS011;62812;55.188;61.302;2023-09-30T02:41:16;19.63;;;10.48;;
74375;SDS011;62812;55.188;61.302;2023-09-30T02:43:43;21.58;;;10.55;;
74375;SDS011;62812;55.188;61.302;2023-09-30T02:46:10;21.90;;;10.25;;
74375;SDS011;62812;55.188;61.302;2023-09-30T02:48:42;20.98;;;10.27;;
74375;SDS011;62812;55.188;61.302;2023-09-30T02:51:09;18.60;;;9.70;;
74375;SDS011;62812;55.188;61.302;2023-09-30T02:53:36;19.45;;;10.55;;
74375;SDS011;62812;55.188;61.302;2023-09-30T02:56:06;19.25;;;9.68;;
74375;SDS011;62812;55.188;61.302;2023-09-30T02:58:34;20.45;;;9.90;;
74375;SDS011;62812;55.188;61.302;2023-09-30T03:01:05;19.05;;;9.23;;
74375;SDS011;62812;55.188;61.302;2023-09-30T03:03:36;21.45;;;10.63;;
74375;SDS011;62812;55.188;61.302;2023-09-30T03:06:06;21.23;;;10.45;;
74375;SDS011;62812;55.188;61.302;2023-09-30T03:08:36;20.52;;;10.35;;
74375;SDS011;62812;55.188;61.302;2023-09-30T03:11:03;21.88;;;9.95;;
74375;SDS011;62812;55.188;61.302;2023-09-30T03:13:35;19.45;;;9.80;;
74375;SDS011;62812;55.188;61.302;2023-09-30T03:16:14;18.98;;;10.23;;
74375;SDS011;62812;55.188;61.302;2023-09-30T03:18:41;18.65;;;10.00;;
74375;SDS011;62812;55.188;61.302;2023-09-30T03:21:14;21.52;;;10.88;;
74375;SDS011;62812;55.188;61.302;2023-09-30T03:23:43;20.70;;;10.18;;
74375;SDS011;62812;55.188;61.302;2023-09-30T03:26:10;20.52;;;10.50;;
74375;SDS011;62812;55.188;61.302;2023-09-30T03:28:37;20.98;;;10.05;;
74375;SDS011;62812;55.188;61.302;2023-09-30T03:31:04;19.52;;;9.90;;
74375;SDS011;62812;55.188;61.302;2023-09-30T03:33:32;19.35;;;10.13;;
74375;SDS011;62812;55.188;61.302;2023-09-30T03:35:59;19.60;;;9.90;;
74375;SDS011;62812;55.188;61.302;2023-09-30T03:38:31;18.33;;;9.60;;
74375;SDS011;62812;55.188;61.302;2023-09-30T03:40:59;22.30;;;9.82;;
74375;SDS011;62812;55.188;61.302;2023-09-30T03:43:27;22.90;;;10.20;;
74375;SDS011;62812;55.188;61.302;2023-09-30T03:45:54;16.95;;;8.50;;
74375;SDS011;62812;55.188;61.302;2023-09-30T03:48:22;18.98;;;9.73;;
74375;SDS011;62812;55.188;61.302;2023-09-30T03:50:51;20.58;;;10.05;;
74375;SDS011;62812;55.188;61.302;2023-09-30T03:53:23;18.58;;;9.57;;
74375;SDS011;62812;55.188;61.302;2023-09-30T03:55:53;17.23;;;9.68;;
74375;SDS011;62812;55.188;61.302;2023-09-30T03:58:21;16.70;;;8.23;;
74375;SDS011;62812;55.188;61.302;2023-09-30T04:00:47;19.70;;;8.85;;
74375;SDS011;62812;55.188;61.302;2023-09-30T04:03:15;16.77;;;8.35;;
74375;SDS011;62812;55.188;61.302;2023-09-30T04:05:41;18.88;;;9.63;;
74375;SDS011;62812;55.188;61.302;2023-09-30T04:08:09;16.58;;;8.52;;
74375;SDS011;62812;55.188;61.302;2023-09-30T04:10:37;18.98;;;8.45;;
74375;SDS011;62812;55.188;61.302;2023-09-30T04:13:06;15.73;;;8.65;;
74375;SDS011;62812;55.188;61.302;2023-09-30T04:15:36;17.73;;;8.07;;
74375;SDS011;62812;55.188;61.302;2023-09-30T04:18:03;17.33;;;8.50;;
74375;SDS011;62812;55.188;61.302;2023-09-30T04:20:33;16.92;;;8.30;;
74375;SDS011;62812;55.188;61.302;2023-09-30T04:23:00;15.38;;;8.40;;
74375;SDS011;62812;55.188;61.302;2023-09-30T04:25:28;14.68;;;8.63;;
74375;SDS011;62812;55.188;61.302;2023-09-30T04:27:56;14.70;;;7.28;;
74375;SDS011;62812;55.188;61.302;2023-09-30T04:30:24;16.15;;;7.97;;
74375;SDS011;62812;55.188;61.302;2023-09-30T04:32:53;14.70;;;7.05;;
74375;SDS011;62812;55.188;61.302;2023-09-30T04:35:20;14.52;;;7.47;;
74375;SDS011;62812;55.188;61.302;2023-09-30T04:37:48;15.50;;;6.70;;
74375;SDS011;62812;55.188;61.302;2023-09-30T04:40:15;12.00;;;6.75;;
74375;SDS011;62812;55.188;61.302;2023-09-30T04:42:45;16.27;;;7.35;;
74375;SDS011;62812;55.188;61.302;2023-09-30T04:45:15;13.85;;;7.50;;
74375;SDS011;62812;55.188;61.302;2023-09-30T04:47:53;14.25;;;7.25;;
74375;SDS011;62812;55.188;61.302;2023-09-30T04:50:22;12.70;;;6.63;;
74375;SDS011;62812;55.188;61.302;2023-09-30T04:52:48;13.60;;;7.43;;
74375;SDS011;62812;55.188;61.302;2023-09-30T04:55:17;14.48;;;7.53;;
74375;SDS011;62812;55.188;61.302;2023-09-30T04:57:46;13.50;;;7.38;;
74375;SDS011;62812;55.188;61.302;2023-09-30T05:00:13;16.40;;;8.23;;
74375;SDS011;62812;55.188;61.302;2023-09-30T05:02:43;15.35;;;6.80;;
74375;SDS011;62812;55.188;61.302;2023-09-30T05:05:12;13.35;;;7.90;;
74375;SDS011;62812;55.188;61.302;2023-09-30T05:07:40;14.75;;;7.13;;
74375;SDS011;62812;55.188;61.302;2023-09-30T05:10:08;13.00;;;7.53;;
74375;SDS011;62812;55.188;61.302;2023-09-30T05:12:39;14.07;;;7.18;;
74375;SDS011;62812;55.188;61.302;2023-09-30T05:15:11;14.70;;;7.55;;
74375;SDS011;62812;55.188;61.302;2023-09-30T05:17:39;17.27;;;7.85;;
74375;SDS011;62812;55.188;61.302;2023-09-30T05:20:06;14.75;;;7.47;;
74375;SDS011;62812;55.188;61.302;2023-09-30T05:22:35;11.85;;;6.18;;
74375;SDS011;62812;55.188;61.302;2023-09-30T05:25:02;14.45;;;7.50;;
74375;SDS011;62812;55.188;61.302;2023-09-30T05:27:29;15.98;;;7.45;;
74375;SDS011;62812;55.188;61.302;2023-09-30T05:29:56;13.10;;;6.75;;
74375;SDS011;62812;55.188;61.302;2023-09-30T05:32:23;15.57;;;7.80;;
74375;SDS011;62812;55.188;61.302;2023-09-30T05:34:52;16.02;;;7.43;;
74375;SDS011;62812;55.188;61.302;2023-09-30T05:37:20;15.65;;;7.22;;
74375;SDS011;62812;55.188;61.302;2023-09-30T05:39:49;17.83;;;8.63;;
74375;SDS011;62812;55.188;61.302;2023-09-30T05:42:16;15.15;;;7.88;;
74375;SDS011;62812;55.188;61.302;2023-09-30T05:44:44;15.70;;;8.02;;
74375;SDS011;62812;55.188;61.302;2023-09-30T05:47:11;16.52;;;8.52;;
74375;SDS011;62812;55.188;61.302;2023-09-30T05:49:38;16.58;;;8.50;;
74375;SDS011;62812;55.188;61.302;2023-09-30T05:52:05;14.00;;;7.75;;
74375;SDS011;62812;55.188;61.302;2023-09-30T05:54:32;17.95;;;8.30;;
74375;SDS011;62812;55.188;61.302;2023-09-30T05:57:00;18.08;;;8.85;;
74375;SDS011;62812;55.188;61.302;2023-09-30T05:59:29;16.45;;;7.75;;
74375;SDS011;62812;55.188;61.302;2023-09-30T06:01:56;16.02;;;8.27;;
74375;SDS011;62812;55.188;61.302;2023-09-30T06:04:22;15.90;;;8.35;;
74375;SDS011;62812;55.188;61.302;2023-09-30T06:06:52;19.67;;;8.93;;
74375;SDS011;62812;55.188;61.302;2023-09-30T06:09:19;16.52;;;7.68;;
74375;SDS011;62812;55.188;61.302;2023-09-30T06:11:51;16.92;;;8.20;;
74375;SDS011;62812;55.188;61.302;2023-09-30T06:14:19;17.13;;;7.88;;
74375;SDS011;62812;55.188;61.302;2023-09-30T06:16:45;18.90;;;7.60;;
74375;SDS011;62812;55.188;61.302;2023-09-30T06:19:13;17.60;;;7.70;;
74375;SDS011;62812;55.188;61.302;2023-09-30T06:21:43;19.83;;;8.25;;
74375;SDS011;62812;55.188;61.302;2023-09-30T06:24:12;16.02;;;7.18;;
74375;SDS011;62812;55.188;61.302;2023-09-30T06:26:39;16.65;;;8.43;;
74375;SDS011;62812;55.188;61.302;2023-09-30T06:29:06;13.05;;;6.63;;
74375;SDS011;62812;55.188;61.302;2023-09-30T06:31:36;15.30;;;8.07;;
74375;SDS011;62812;55.188;61.302;2023-09-30T06:34:06;15.00;;;7.72;;
74375;SDS011;62812;55.188;61.302;2023-09-30T06:36:34;17.13;;;8.45;;
74375;SDS011;62812;55.188;61.302;2023-09-30T06:39:04;14.43;;;7.18;;
74375;SDS011;62812;55.188;61.302;2023-09-30T06:41:34;15.93;;;8.27;;
74375;SDS011;62812;55.188;61.302;2023-09-30T06:44:02;14.38;;;7.75;;
74375;SDS011;62812;55.188;61.302;2023-09-30T06:46:29;17.88;;;8.43;;
74375;SDS011;62812;55.188;61.302;2023-09-30T06:54:05;14.55;;;7.63;;
74375;SDS011;62812;55.188;61.302;2023-09-30T06:56:34;14.65;;;8.18;;
74375;SDS011;62812;55.188;61.302;2023-09-30T06:59:01;17.30;;;8.50;;
74375;SDS011;62812;55.188;61.302;2023-09-30T07:01:38;12.80;;;7.28;;
74375;SDS011;62812;55.188;61.302;2023-09-30T07:04:05;16.33;;;7.57;;
74375;SDS011;62812;55.188;61.302;2023-09-30T07:06:35;14.82;;;7.57;;
74375;SDS011;62812;55.188;61.302;2023-09-30T07:09:04;16.50;;;7.85;;
74375;SDS011;62812;55.188;61.302;2023-09-30T07:11:42;13.93;;;7.72;;
74375;SDS011;62812;55.188;61.302;2023-09-30T07:14:16;14.68;;;7.40;;
74375;SDS011;62812;55.188;61.302;2023-09-30T07:16:43;15.35;;;7.57;;
74375;SDS011;62812;55.188;61.302;2023-09-30T07:19:11;11.82;;;6.28;;
74375;SDS011;62812;55.188;61.302;2023-09-30T07:21:41;14.93;;;7.22;;
74375;SDS011;62812;55.188;61.302;2023-09-30T07:24:08;14.55;;;8.25;;
74375;SDS011;62812;55.188;61.302;2023-09-30T07:26:36;16.05;;;7.45;;
74375;SDS011;62812;55.188;61.302;2023-09-30T07:29:09;15.23;;;7.82;;
74375;SDS011;62812;55.188;61.302;2023-09-30T07:31:36;13.75;;;8.38;;
74375;SDS011;62812;55.188;61.302;2023-09-30T07:34:03;15.73;;;7.95;;
74375;SDS011;62812;55.188;61.302;2023-09-30T07:36:30;14.65;;;8.00;;
74375;SDS011;62812;55.188;61.302;2023-09-30T07:39:04;16.17;;;7.82;;
74375;SDS011;62812;55.188;61.302;2023-09-30T07:41:34;18.25;;;8.82;;
74375;SDS011;62812;55.188;61.302;2023-09-30T07:44:02;18.50;;;8.60;;
74375;SDS011;62812;55.188;61.302;2023-09-30T07:46:31;17.05;;;7.93;;
74375;SDS011;62812;55.188;61.302;2023-09-30T07:51:29;24.45;;;11.15;;
74375;SDS011;62812;55.188;61.302;2023-09-30T07:53:55;22.75;;;10.10;;
74375;SDS011;62812;55.188;61.302;2023-09-30T07:56:25;19.15;;;8.80;;
74375;SDS011;62812;55.188;61.302;2023-09-30T07:58:52;19.20;;;9.20;;
74375;SDS011;62812;55.188;61.302;2023-09-30T08:01:19;22.50;;;10.52;;
74375;SDS011;62812;55.188;61.302;2023-09-30T08:03:45;27.38;;;12.98;;
74375;SDS011;62812;55.188;61.302;2023-09-30T08:06:12;28.15;;;13.00;;
74375;SDS011;62812;55.188;61.302;2023-09-30T08:08:39;33.75;;;15.48;;
74375;SDS011;62812;55.188;61.302;2023-09-30T08:11:06;25.70;;;12.52;;
74375;SDS011;62812;55.188;61.302;2023-09-30T08:13:34;29.90;;;13.45;;
74375;SDS011;62812;55.188;61.302;2023-09-30T08:16:02;27.05;;;13.15;;
74375;SDS011;62812;55.188;61.302;2023-09-30T08:18:28;37.45;;;16.25;;
74375;SDS011;62812;55.188;61.302;2023-09-30T08:20:58;34.00;;;16.67;;
74375;SDS011;62812;55.188;61.302;2023-09-30T08:23:32;35.80;;;14.90;;
74375;SDS011;62812;55.188;61.302;2023-09-30T08:25:58;38.00;;;15.00;;
74375;SDS011;62812;55.188;61.302;2023-09-30T08:28:25;40.85;;;12.25;;
74375;SDS011;62812;55.188;61.302;2023-09-30T08:30:53;20.52;;;9.85;;
74375;SDS011;62812;55.188;61.302;2023-09-30T08:33:24;38.80;;;13.45;;
74375;SDS011;62812;55.188;61.302;2023-09-30T08:35:53;22.20;;;7.38;;
74375;SDS011;62812;55.188;61.302;2023-09-30T08:38:20;21.20;;;8.35;;
74375;SDS011;62812;55.188;61.302;2023-09-30T08:40:46;32.00;;;10.35;;
74375;SDS011;62812;55.188;61.302;2023-09-30T08:43:14;19.23;;;7.82;;
74375;SDS011;62812;55.188;61.302;2023-09-30T08:45:45;27.55;;;7.85;;
74375;SDS011;62812;55.188;61.302;2023-09-30T08:48:19;20.48;;;6.80;;
74375;SDS011;62812;55.188;61.302;2023-09-30T08:50:48;24.48;;;8.48;;
74375;SDS011;62812;55.188;61.302;2023-09-30T08:53:16;28.48;;;9.82;;
74375;SDS011;62812;55.188;61.302;2023-09-30T08:55:43;17.13;;;7.65;;
74375;SDS011;62812;55.188;61.302;2023-09-30T08:58:14;10.65;;;4.57;;
74375;SDS011;62812;55.188;61.302;2023-09-30T09:00:42;18.10;;;5.78;;
74375;SDS011;62812;55.188;61.302;2023-09-30T09:03:09;16.08;;;5.55;;
74375;SDS011;62812;55.188;61.302;2023-09-30T09:05:37;22.95;;;8.88;;
74375;SDS011;62812;55.188;61.302;2023-09-30T09:08:04;22.58;;;10.00;;
74375;SDS011;62812;55.188;61.302;2023-09-30T09:10:31;21.10;;;10.73;;
74375;SDS011;62812;55.188;61.302;2023-09-30T09:12:57;26.92;;;11.10;;
74375;SDS011;62812;55.188;61.302;2023-09-30T09:15:25;26.63;;;14.38;;
74375;SDS011;62812;55.188;61.302;2023-09-30T09:17:52;16.90;;;6.40;;
74375;SDS011;62812;55.188;61.302;2023-09-30T09:20:19;14.63;;;5.30;;
74375;SDS011;62812;55.188;61.302;2023-09-30T09:22:50;18.23;;;5.53;;
74375;SDS011;62812;55.188;61.302;2023-09-30T09:25:19;10.27;;;3.58;;
74375;SDS011;62812;55.188;61.302;2023-09-30T09:27:48;10.48;;;3.65;;
74375;SDS011;62812;55.188;61.302;2023-09-30T09:30:16;11.82;;;3.10;;
74375;SDS011;62812;55.188;61.302;2023-09-30T09:32:58;8.07;;;2.47;;
74375;SDS011;62812;55.188;61.302;2023-09-30T09:35:26;12.85;;;3.58;;
74375;SDS011;62812;55.188;61.302;2023-09-30T09:38:00;6.68;;;2.90;;
74375;SDS011;62812;55.188;61.302;2023-09-30T09:40:27;9.68;;;3.65;;
74375;SDS011;62812;55.188;61.302;2023-09-30T09:42:56;18.40;;;6.65;;
74375;SDS011;62812;55.188;61.302;2023-09-30T09:45:24;24.45;;;7.07;;
74375;SDS011;62812;55.188;61.302;2023-09-30T09:47:52;17.52;;;8.25;;
74375;SDS011;62812;55.188;61.302;2023-09-30T09:50:20;35.72;;;12.85;;
74375;SDS011;62812;55.188;61.302;2023-09-30T09:52:49;35.00;;;14.55;;
74375;SDS011;62812;55.188;61.302;2023-09-30T09:55:18;32.17;;;14.10;;
74375;SDS011;62812;55.188;61.302;2023-09-30T09:57:48;36.72;;;14.32;;
74375;SDS011;62812;55.188;61.302;2023-09-30T10:00:15;37.78;;;15.43;;
74375;SDS011;62812;55.188;61.302;2023-09-30T10:02:47;34.90;;;14.80;;
74375;SDS011;62812;55.188;61.302;2023-09-30T10:05:18;26.65;;;11.57;;
74375;SDS011;62812;55.188;61.302;2023-09-30T10:07:53;26.38;;;11.23;;
74375;SDS011;62812;55.188;61.302;2023-09-30T10:12:50;22.98;;;9.88;;
74375;SDS011;62812;55.188;61.302;2023-09-30T10:15:37;22.58;;;9.85;;
74375;SDS011;62812;55.188;61.302;2023-09-30T10:18:06;35.88;;;15.60;;
74375;SDS011;62812;55.188;61.302;2023-09-30T10:20:34;27.38;;;12.57;;
74375;SDS011;62812;55.188;61.302;2023-09-30T10:23:20;26.88;;;12.73;;
74375;SDS011;62812;55.188;61.302;2023-09-30T10:25:49;29.17;;;12.05;;
74375;SDS011;62812;55.188;61.302;2023-09-30T10:28:32;22.58;;;10.25;;
74375;SDS011;62812;55.188;61.302;2023-09-30T10:31:10;21.00;;;9.50;;
74375;SDS011;62812;55.188;61.302;2023-09-30T10:36:38;24.02;;;11.93;;
74375;SDS011;62812;55.188;61.302;2023-09-30T10:39:06;26.23;;;11.30;;
74375;SDS011;62812;55.188;61.302;2023-09-30T10:41:50;23.10;;;10.95;;
74375;SDS011;62812;55.188;61.302;2023-09-30T10:44:32;19.08;;;6.53;;
74375;SDS011;62812;55.188;61.302;2023-09-30T10:47:00;14.05;;;6.22;;
74375;SDS011;62812;55.188;61.302;2023-09-30T10:49:46;14.80;;;5.05;;
74375;SDS011;62812;55.188;61.302;2023-09-30T10:52:17;11.73;;;4.00;;
74375;SDS011;62812;55.188;61.302;2023-09-30T10:54:48;6.70;;;2.42;;
74375;SDS011;62812;55.188;61.302;2023-09-30T10:57:16;6.55;;;2.55;;
74375;SDS011;62812;55.188;61.302;2023-09-30T11:00:06;5.38;;;2.53;;
74375;SDS011;62812;55.188;61.302;2023-09-30T11:02:34;7.05;;;3.05;;
74375;SDS011;62812;55.188;61.302;2023-09-30T11:05:08;5.63;;;2.50;;
74375;SDS011;62812;55.188;61.302;2023-09-30T11:07:35;10.02;;;3.78;;
74375;SDS011;62812;55.188;61.302;2023-09-30T11:10:05;7.18;;;3.63;;
74375;SDS011;62812;55.188;61.302;2023-09-30T11:12:35;14.25;;;5.18;;
74375;SDS011;62812;55.188;61.302;2023-09-30T11:15:02;11.93;;;5.15;;
74375;SDS011;62812;55.188;61.302;2023-09-30T11:17:30;9.55;;;4.80;;
74375;SDS011;62812;55.188;61.302;2023-09-30T11:19:57;10.63;;;4.55;;
74375;SDS011;62812;55.188;61.302;2023-09-30T11:22:24;9.27;;;4.57;;
74375;SDS011;62812;55.188;61.302;2023-09-30T11:24:52;10.57;;;4.68;;
74375;SDS011;62812;55.188;61.302;2023-09-30T11:27:22;8.65;;;4.35;;
74375;SDS011;62812;55.188;61.302;2023-09-30T11:29:52;9.98;;;5.50;;
74375;SDS011;62812;55.188;61.302;2023-09-30T11:32:25;11.02;;;5.47;;
74375;SDS011;62812;55.188;61.302;2023-09-30T11:34:52;11.65;;;6.10;;
74375;SDS011;62812;55.188;61.302;2023-09-30T11:37:20;11.00;;;5.72;;
74375;SDS011;62812;55.188;61.302;2023-09-30T11:39:48;10.23;;;6.07;;
74375;SDS011;62812;55.188;61.302;2023-09-30T11:42:16;11.65;;;5.57;;
74375;SDS011;62812;55.188;61.302;2023-09-30T11:44:46;10.82;;;5.85;;
74375;SDS011;62812;55.188;61.302;2023-09-30T11:47:14;11.43;;;6.18;;
74375;SDS011;62812;55.188;61.302;2023-09-30T11:49:43;12.70;;;6.38;;
74375;SDS011;62812;55.188;61.302;2023-09-30T11:52:15;12.05;;;6.72;;
74375;SDS011;62812;55.188;61.302;2023-09-30T11:54:43;13.45;;;7.20;;
74375;SDS011;62812;55.188;61.302;2023-09-30T11:57:10;14.10;;;6.90;;
74375;SDS011;62812;55.188;61.302;2023-09-30T11:59:41;13.45;;;7.13;;
74375;SDS011;62812;55.188;61.302;2023-09-30T12:02:09;13.90;;;7.35;;
74375;SDS011;62812;55.188;61.302;2023-09-30T12:04:37;12.35;;;6.40;;
74375;SDS011;62812;55.188;61.302;2023-09-30T12:07:04;12.20;;;6.60;;
74375;SDS011;62812;55.188;61.302;2023-09-30T12:09:32;12.23;;;6.53;;
74375;SDS011;62812;55.188;61.302;2023-09-30T12:12:03;11.23;;;5.80;;
74375;SDS011;62812;55.188;61.302;2023-09-30T12:14:30;11.15;;;6.13;;
74375;SDS011;62812;55.188;61.302;2023-09-30T12:16:57;12.07;;;6.22;;
74375;SDS011;62812;55.188;61.302;2023-09-30T12:19:24;10.32;;;5.70;;
74375;SDS011;62812;55.188;61.302;2023-09-30T12:21:53;11.80;;;6.07;;
74375;SDS011;62812;55.188;61.302;2023-09-30T12:24:20;11.02;;;5.65;;
74375;SDS011;62812;55.188;61.302;2023-09-30T12:26:48;10.75;;;6.28;;
74375;SDS011;62812;55.188;61.302;2023-09-30T12:29:16;10.50;;;5.63;;
74375;SDS011;62812;55.188;61.302;2023-09-30T12:31:43;12.43;;;6.40;;
74375;SDS011;62812;55.188;61.302;2023-09-30T12:34:10;16.55;;;6.75;;
74375;SDS011;62812;55.188;61.302;2023-09-30T12:36:38;12.75;;;6.65;;
74375;SDS011;62812;55.188;61.302;2023-09-30T12:39:07;14.43;;;6.97;;
74375;SDS011;62812;55.188;61.302;2023-09-30T12:41:40;12.63;;;6.88;;
74375;SDS011;62812;55.188;61.302;2023-09-30T12:44:11;12.32;;;6.68;;
74375;SDS011;62812;55.188;61.302;2023-09-30T12:46:37;13.70;;;7.07;;
74375;SDS011;62812;55.188;61.302;2023-09-30T12:49:05;20.83;;;8.38;;
74375;SDS011;62812;55.188;61.302;2023-09-30T12:51:32;16.48;;;8.43;;
74375;SDS011;62812;55.188;61.302;2023-09-30T12:53:59;12.02;;;7.28;;
74375;SDS011;62812;55.188;61.302;2023-09-30T12:56:31;14.13;;;6.95;;
74375;SDS011;62812;55.188;61.302;2023-09-30T12:58:58;14.85;;;8.55;;
74375;SDS011;62812;55.188;61.302;2023-09-30T13:01:26;12.85;;;6.57;;
74375;SDS011;62812;55.188;61.302;2023-09-30T13:03:54;11.60;;;6.70;;
74375;SDS011;62812;55.188;61.302;2023-09-30T13:06:20;14.00;;;5.65;;
74375;SDS011;62812;55.188;61.302;2023-09-30T13:08:47;10.68;;;5.20;;
74375;SDS011;62812;55.188;61.302;2023-09-30T13:11:13;10.07;;;5.07;;
74375;SDS011;62812;55.188;61.302;2023-09-30T13:13:41;12.35;;;5.45;;
74375;SDS011;62812;55.188;61.302;2023-09-30T13:16:09;11.50;;;5.10;;
74375;SDS011;62812;55.188;61.302;2023-09-30T13:18:36;10.40;;;4.63;;
74375;SDS011;62812;55.188;61.302;2023-09-30T13:21:03;13.52;;;5.07;;
74375;SDS011;62812;55.188;61.302;2023-09-30T13:23:31;14.65;;;5.30;;
74375;SDS011;62812;55.188;61.302;2023-09-30T13:25:58;11.57;;;5.15;;
74375;SDS011;62812;55.188;61.302;2023-09-30T13:28:32;12.07;;;5.18;;
74375;SDS011;62812;55.188;61.302;2023-09-30T13:31:00;8.13;;;4.72;;
74375;SDS011;62812;55.188;61.302;2023-09-30T13:33:27;10.52;;;4.75;;
74375;SDS011;62812;55.188;61.302;2023-09-30T13:35:54;9.20;;;4.93;;
74375;SDS011;62812;55.188;61.302;2023-09-30T13:38:22;10.43;;;5.13;;
74375;SDS011;62812;55.188;61.302;2023-09-30T13:40:49;9.63;;;5.25;;
74375;SDS011;62812;55.188;61.302;2023-09-30T13:43:16;9.02;;;4.97;;
74375;SDS011;62812;55.188;61.302;2023-09-30T13:45:43;10.80;;;5.90;;
74375;SDS011;62812;55.188;61.302;2023-09-30T13:48:11;10.75;;;5.82;;
74375;SDS011;62812;55.188;61.302;2023-09-30T13:50:37;11.30;;;6.50;;
74375;SDS011;62812;55.188;61.302;2023-09-30T13:53:04;11.95;;;5.93;;
74375;SDS011;62812;55.188;61.302;2023-09-30T13:55:31;11.93;;;5.90;;
74375;SDS011;62812;55.188;61.302;2023-09-30T13:57:58;16.63;;;7.18;;
74375;SDS011;62812;55.188;61.302;2023-09-30T14:00:24;14.02;;;7.20;;
74375;SDS011;62812;55.188;61.302;2023-09-30T14:03:09;12.63;;;6.97;;
74375;SDS011;62812;55.188;61.302;2023-09-30T14:05:37;14.45;;;8.10;;
74375;SDS011;62812;55.188;61.302;2023-09-30T14:08:04;20.00;;;8.43;;
74375;SDS011;62812;55.188;61.302;2023-09-30T14:10:33;15.40;;;7.78;;
74375;SDS011;62812;55.188;61.302;2023-09-30T14:13:00;12.73;;;7.07;;
74375;SDS011;62812;55.188;61.302;2023-09-30T14:15:26;14.45;;;6.55;;
74375;SDS011;62812;55.188;61.302;2023-09-30T14:17:54;12.95;;;7.38;;
74375;SDS011;62812;55.188;61.302;2023-09-30T14:20:30;13.77;;;7.53;;
74375;SDS011;62812;55.188;61.302;2023-09-30T14:22:56;13.43;;;7.63;;
74375;SDS011;62812;55.188;61.302;2023-09-30T14:25:26;13.13;;;7.65;;
74375;SDS011;62812;55.188;61.302;2023-09-30T14:27:53;15.38;;;8.30;;
74375;SDS011;62812;55.188;61.302;2023-09-30T14:30:20;16.25;;;9.52;;
74375;SDS011;62812;55.188;61.302;2023-09-30T14:32:47;15.15;;;7.75;;
74375;SDS011;62812;55.188;61.302;2023-09-30T14:35:14;17.40;;;9.07;;
74375;SDS011;62812;55.188;61.302;2023-09-30T14:37:43;15.25;;;8.80;;
74375;SDS011;62812;55.188;61.302;2023-09-30T14:40:10;17.20;;;8.82;;
74375;SDS011;62812;55.188;61.302;2023-09-30T14:42:37;16.02;;;9.48;;